createdAt,value
2022-12-18T00:02:01.513Z,100920.47
2022-12-18T00:06:03.420Z,100918.44
2022-12-18T00:10:07.887Z,100911.75
2022-12-18T00:14:12.227Z,100927.00
2022-12-18T00:18:16.062Z,100942.81
2022-12-18T00:22:20.565Z,100940.09
2022-12-18T00:26:25.398Z,100932.03
2022-12-18T00:30:27.229Z,100940.00
2022-12-18T00:34:28.763Z,100945.38
2022-12-18T00:38:30.367Z,100947.25
2022-12-18T00:42:33.226Z,100959.09
2022-12-18T00:46:34.791Z,100954.72
2022-12-18T00:50:36.348Z,100957.44
2022-12-18T00:54:37.865Z,100955.06
2022-12-18T00:58:40.757Z,100962.19
2022-12-18T01:02:42.715Z,100959.44
2022-12-18T01:06:44.386Z,100961.34
2022-12-18T01:10:46.212Z,100961.56
2022-12-18T01:14:49.208Z,100963.16
2022-12-18T01:18:52.902Z,100963.53
2022-12-18T01:22:54.399Z,100967.94
2022-12-18T01:26:55.936Z,100971.47
2022-12-18T01:30:58.789Z,100983.28
2022-12-18T01:35:00.289Z,100984.84
2022-12-18T01:39:04.019Z,100984.50
2022-12-18T01:43:05.553Z,100979.84
2022-12-18T01:47:21.100Z,100983.63
2022-12-18T01:51:23.047Z,100978.34
2022-12-18T01:55:26.594Z,100979.94
2022-12-18T01:59:29.260Z,100994.00
2022-12-18T02:03:32.151Z,100989.34
2022-12-18T02:07:43.389Z,100984.63
2022-12-18T02:11:53.933Z,100985.09
2022-12-18T02:16:03.018Z,100993.81
2022-12-18T02:20:14.722Z,100981.69
2022-12-18T02:24:26.489Z,100983.66
2022-12-18T02:28:34.417Z,100980.97
2022-12-18T02:32:41.017Z,100989.91
2022-12-18T02:36:45.055Z,100988.84
2022-12-18T02:40:47.265Z,100992.97
2022-12-18T02:44:52.065Z,100997.56
2022-12-18T02:48:59.018Z,100996.00
2022-12-18T02:53:11.179Z,100993.03
2022-12-18T02:57:21.696Z,101003.75
2022-12-18T03:01:32.367Z,101006.44
2022-12-18T03:05:39.440Z,100995.91
2022-12-18T03:09:47.293Z,101001.97
2022-12-18T03:13:53.544Z,100997.66
2022-12-18T03:18:00.569Z,100995.59
2022-12-18T03:22:04.385Z,101004.25
2022-12-18T03:26:10.177Z,101004.19
2022-12-18T03:30:16.669Z,101007.78
2022-12-18T03:34:24.268Z,101008.06
2022-12-18T03:38:25.836Z,101015.16
2022-12-18T03:42:32.322Z,101006.81
2022-12-18T03:46:41.595Z,101008.59
2022-12-18T03:50:49.659Z,101014.44
2022-12-18T03:54:52.432Z,101021.72
2022-12-18T03:58:56.157Z,101015.09
2022-12-18T04:03:01.561Z,101016.25
2022-12-18T04:07:05.643Z,101027.69
2022-12-18T04:11:07.220Z,101034.59
2022-12-18T04:15:09.998Z,101030.72
2022-12-18T04:19:11.611Z,101032.94
2022-12-18T04:23:14.459Z,101036.41
2022-12-18T04:27:16.181Z,101034.50
2022-12-18T04:31:17.875Z,101029.94
2022-12-18T04:35:19.529Z,101044.38
2022-12-18T04:39:22.760Z,101046.66
2022-12-18T04:43:24.367Z,101054.91
2022-12-18T04:47:25.929Z,101041.19
2022-12-18T04:51:27.420Z,101048.84
2022-12-18T04:55:30.274Z,101044.94
2022-12-18T04:59:31.773Z,101051.94
2022-12-18T05:03:33.318Z,101051.94
2022-12-18T05:07:35.038Z,101049.16
2022-12-18T05:11:37.889Z,101042.53
2022-12-18T05:15:39.481Z,101045.69
2022-12-18T05:19:41.050Z,101046.63
2022-12-18T05:23:42.905Z,101051.66
2022-12-18T05:27:46.923Z,101053.00
2022-12-18T05:31:48.459Z,101052.44
2022-12-18T05:35:51.774Z,101058.53
2022-12-18T05:39:53.332Z,101046.84
2022-12-18T05:43:56.246Z,101055.84
2022-12-18T05:47:57.742Z,101054.72
2022-12-18T05:51:59.228Z,101055.25
2022-12-18T05:56:01.979Z,101054.00
2022-12-18T06:00:05.838Z,101059.31
2022-12-18T06:04:07.452Z,101061.41
2022-12-18T06:08:09.790Z,101062.78
2022-12-18T06:12:11.293Z,101082.00
2022-12-18T06:16:14.276Z,101078.44
2022-12-18T06:20:15.907Z,101079.44
2022-12-18T06:24:18.501Z,101074.44
2022-12-18T06:28:20.094Z,101086.16
2022-12-18T06:32:23.637Z,101082.00
2022-12-18T06:36:25.163Z,101085.75
2022-12-18T06:40:26.642Z,101084.16
2022-12-18T06:44:28.211Z,101099.63
2022-12-18T06:48:31.775Z,101106.28
2022-12-18T06:52:33.633Z,101098.47
2022-12-18T06:56:35.334Z,101107.66
2022-12-18T07:00:36.989Z,101110.19
2022-12-18T07:04:39.854Z,101117.06
2022-12-18T07:08:41.502Z,101112.88
2022-12-18T07:12:43.142Z,101122.75
2022-12-18T07:16:44.670Z,101115.16
2022-12-18T07:20:47.751Z,101114.88
2022-12-18T07:24:50.204Z,101127.16
2022-12-18T07:28:56.600Z,101133.81
2022-12-18T07:32:58.060Z,101128.56
2022-12-18T07:37:01.053Z,101136.66
2022-12-18T07:41:03.353Z,101141.09
2022-12-18T07:45:08.089Z,101149.53
2022-12-18T07:49:09.587Z,101144.63
2022-12-18T07:53:12.549Z,101151.13
2022-12-18T07:57:41.418Z,101147.53
2022-12-18T08:01:35.880Z,101145.03
2022-12-18T08:05:37.570Z,101147.41
2022-12-18T08:09:40.519Z,101135.22
2022-12-18T08:13:42.463Z,101125.53
2022-12-18T08:17:44.362Z,101130.50
2022-12-18T08:21:46.068Z,101131.66
2022-12-18T08:25:49.089Z,101136.50
2022-12-18T08:29:50.648Z,101141.28
2022-12-18T08:33:53.443Z,101137.50
2022-12-18T08:37:56.102Z,101135.59
2022-12-18T08:41:59.201Z,101136.63
2022-12-18T08:46:00.946Z,101140.75
2022-12-18T08:50:02.668Z,101136.03
2022-12-18T08:54:06.422Z,101142.22
2022-12-18T08:58:09.633Z,101148.19
2022-12-18T09:02:11.949Z,101152.78
2022-12-18T09:06:15.225Z,101134.03
2022-12-18T09:10:16.997Z,101146.00
2022-12-18T09:14:20.652Z,101157.81
2022-12-18T09:18:23.717Z,101166.19
2022-12-18T09:22:25.310Z,101172.50
2022-12-18T09:26:27.399Z,101183.13
2022-12-18T09:30:30.357Z,101173.91
2022-12-18T09:34:32.065Z,101178.41
2022-12-18T09:38:34.102Z,101178.38
2022-12-18T09:42:35.753Z,101178.19
2022-12-18T09:46:44.857Z,101165.06
2022-12-18T09:50:47.443Z,101160.69
2022-12-18T09:54:54.080Z,101158.91
2022-12-18T09:58:59.415Z,101152.97
2022-12-18T10:03:09.804Z,101145.19
2022-12-18T10:07:20.014Z,101143.13
2022-12-18T10:11:32.318Z,101120.72
2022-12-18T10:15:41.184Z,101111.53
2022-12-18T10:19:51.104Z,101106.34
2022-12-18T10:23:59.507Z,101097.78
2022-12-18T10:28:09.588Z,101085.94
2022-12-18T10:32:16.947Z,101091.19
2022-12-18T10:36:19.808Z,101076.09
2022-12-18T10:40:22.760Z,101076.22
2022-12-18T10:44:28.552Z,101071.59
2022-12-18T10:48:31.873Z,101072.81
2022-12-18T10:52:34.955Z,101072.38
2022-12-18T10:56:38.962Z,101081.75
2022-12-18T11:00:42.125Z,101071.09
2022-12-18T11:04:52.370Z,101061.78
2022-12-18T11:09:00.764Z,101063.91
2022-12-18T11:13:13.786Z,101054.97
2022-12-18T11:17:27.691Z,101043.19
2022-12-18T11:21:29.269Z,101038.38
2022-12-18T11:25:35.394Z,101042.72
2022-12-18T11:29:46.246Z,101049.13
2022-12-18T11:34:26.772Z,101042.84
2022-12-18T11:38:22.901Z,101044.66
2022-12-18T11:42:32.997Z,101032.78
2022-12-18T11:46:40.877Z,101041.94
2022-12-18T11:50:51.696Z,101047.03
2022-12-18T11:54:53.738Z,101048.53
2022-12-18T11:59:08.019Z,101051.94
2022-12-18T12:03:44.539Z,101053.72
2022-12-18T12:07:56.162Z,101064.03
2022-12-18T12:12:11.491Z,101062.84
2022-12-18T12:16:19.344Z,101062.56
2022-12-18T12:20:25.904Z,101075.69
2022-12-18T12:24:38.588Z,101071.19
2022-12-18T12:28:53.485Z,101074.97
2022-12-18T12:33:15.296Z,101084.91
2022-12-18T12:37:28.186Z,101093.47
2022-12-18T12:41:33.231Z,101103.94
2022-12-18T12:45:39.898Z,101099.91
2022-12-18T12:49:43.685Z,101071.78
2022-12-18T12:53:46.077Z,101065.91
2022-12-18T12:57:56.837Z,101076.84
2022-12-18T13:02:05.410Z,101074.78
2022-12-18T13:06:15.553Z,101064.56
2022-12-18T13:10:36.183Z,101066.00
2022-12-18T13:14:40.197Z,101053.34
2022-12-18T13:18:50.499Z,101053.25
2022-12-18T13:22:53.406Z,101061.25
2022-12-18T13:26:55.151Z,101061.00
2022-12-18T13:30:57.734Z,101072.56
2022-12-18T13:35:39.759Z,101066.25
2022-12-18T13:39:43.128Z,101074.47
2022-12-18T13:43:47.773Z,101066.81
2022-12-18T13:47:50.574Z,101059.25
2022-12-18T13:51:53.832Z,101053.06
2022-12-18T13:55:57.199Z,101051.38
2022-12-18T14:00:00.156Z,101054.34
2022-12-18T14:04:12.733Z,101048.25
2022-12-18T14:08:16.254Z,101062.59
2022-12-18T14:12:22.583Z,101064.00
2022-12-18T14:16:24.251Z,101058.34
2022-12-18T14:20:26.804Z,101050.03
2022-12-18T14:24:28.513Z,101040.19
2022-12-18T14:28:31.435Z,101043.41
2022-12-18T14:32:32.952Z,101036.25
2022-12-18T14:36:35.513Z,101026.53
2022-12-18T14:40:37.136Z,101021.19
2022-12-18T14:45:05.207Z,101029.44
2022-12-18T14:49:04.637Z,101023.13
2022-12-18T14:53:18.522Z,101024.63
2022-12-18T14:57:24.186Z,101032.53
2022-12-18T15:01:30.295Z,101033.06
2022-12-18T15:05:32.635Z,101030.19
2022-12-18T15:09:34.143Z,101014.78
2022-12-18T15:13:35.664Z,101021.94
2022-12-18T15:17:39.121Z,101033.09
2022-12-18T15:21:43.906Z,101010.94
2022-12-18T15:25:47.042Z,101012.84
2022-12-18T15:30:16.518Z,101008.91
2022-12-18T15:34:23.228Z,101002.31
2022-12-18T15:38:24.763Z,100994.13
2022-12-18T15:42:26.338Z,100997.63
2022-12-18T15:46:27.903Z,100981.78
2022-12-18T15:50:30.910Z,100999.81
2022-12-18T15:54:32.773Z,100988.31
2022-12-18T15:58:34.331Z,100982.13
2022-12-18T16:02:36.049Z,100979.44
2022-12-18T16:07:05.314Z,100968.03
2022-12-18T16:11:01.066Z,100965.91
2022-12-18T16:15:02.617Z,100969.31
2022-12-18T16:19:04.116Z,100969.31
2022-12-18T16:23:07.299Z,100971.03
2022-12-18T16:27:08.836Z,100978.50
2022-12-18T16:31:10.491Z,100979.13
2022-12-18T16:35:13.080Z,100979.13
2022-12-18T16:39:16.009Z,100978.28
2022-12-18T16:43:17.494Z,100974.97
2022-12-18T16:47:19.689Z,100961.75
2022-12-18T16:51:21.203Z,100960.13
2022-12-18T16:55:24.036Z,100969.41
2022-12-18T16:59:25.645Z,100966.81
2022-12-18T17:03:27.443Z,100961.19
2022-12-18T17:07:29.084Z,100962.91
2022-12-18T17:11:33.663Z,100949.00
2022-12-18T17:15:35.408Z,100963.13
2022-12-18T17:19:36.971Z,100951.59
2022-12-18T17:23:38.739Z,100949.56
2022-12-18T17:27:41.804Z,100956.59
2022-12-18T17:31:43.401Z,100946.72
2022-12-18T17:35:45.186Z,100948.81
2022-12-18T17:39:49.873Z,100955.63
2022-12-18T17:43:53.786Z,100952.97
2022-12-18T17:47:59.696Z,100947.13
2022-12-18T17:52:01.550Z,100944.78
2022-12-18T17:56:03.252Z,100935.59
2022-12-18T18:00:07.899Z,100939.03
2022-12-18T18:04:09.831Z,100940.75
2022-12-18T18:08:11.478Z,100935.94
2022-12-18T18:12:13.214Z,100937.22
2022-12-18T18:16:16.207Z,100933.38
2022-12-18T18:20:22.493Z,100932.97
2022-12-18T18:24:24.412Z,100932.22
2022-12-18T18:28:25.970Z,100926.56
2022-12-18T18:32:28.899Z,100919.75
2022-12-18T18:36:30.833Z,100910.59
2022-12-18T18:40:32.482Z,100910.38
2022-12-18T18:44:34.014Z,100914.97
2022-12-18T18:48:37.476Z,100899.47
2022-12-18T18:52:39.949Z,100882.81
2022-12-18T18:57:18.820Z,100896.69
2022-12-18T19:01:06.983Z,100887.06
2022-12-18T19:05:10.035Z,100868.25
2022-12-18T19:09:11.598Z,100859.69
2022-12-18T19:13:13.854Z,100862.03
2022-12-18T19:17:15.456Z,100867.53
2022-12-18T19:21:18.768Z,100850.66
2022-12-18T19:25:20.368Z,100859.19
2022-12-18T19:29:21.920Z,100857.94
2022-12-18T19:37:46.443Z,100830.34
2022-12-18T19:41:48.279Z,100806.78
2022-12-18T19:45:54.615Z,100809.56
2022-12-18T19:49:56.238Z,100804.84
2022-12-18T19:54:01.834Z,100803.31
2022-12-18T19:58:03.561Z,100795.19
2022-12-18T20:02:05.161Z,100798.31
2022-12-18T20:06:11.963Z,100805.88
2022-12-18T20:10:15.110Z,100803.47
2022-12-18T20:14:23.485Z,100796.44
2022-12-18T20:18:25.313Z,100796.19
2022-12-18T20:22:27.047Z,100794.03
2022-12-18T20:26:30.281Z,100799.25
2022-12-18T20:30:31.850Z,100797.41
2022-12-18T20:34:33.352Z,100789.91
2022-12-18T20:38:35.696Z,100792.59
2022-12-18T20:42:38.952Z,100785.81
2022-12-18T20:46:40.461Z,100770.44
2022-12-18T20:50:42.008Z,100753.72
2022-12-18T20:54:43.514Z,100747.66
2022-12-18T20:58:46.713Z,100750.56
2022-12-18T21:02:48.333Z,100744.25
2022-12-18T21:06:55.568Z,100734.31
2022-12-18T21:11:17.526Z,100754.47
2022-12-18T21:15:26.813Z,100748.38
2022-12-18T21:19:30.069Z,100742.19
2022-12-18T21:23:32.017Z,100740.84
2022-12-18T21:27:33.837Z,100727.97
2022-12-18T21:31:38.198Z,100722.22
2022-12-18T21:35:39.789Z,100717.97
2022-12-18T21:39:41.570Z,100730.88
2022-12-18T21:43:43.264Z,100735.03
2022-12-18T21:47:46.366Z,100717.50
2022-12-18T21:51:49.351Z,100724.78
2022-12-18T21:55:58.055Z,100736.25
2022-12-18T21:59:59.685Z,100706.69
2022-12-18T22:04:02.926Z,100696.84
2022-12-18T22:08:05.063Z,100712.53
2022-12-18T22:12:07.599Z,100706.09
2022-12-18T22:16:09.330Z,100709.25
2022-12-18T22:20:12.907Z,100700.00
2022-12-18T22:24:17.062Z,100684.56
2022-12-18T22:28:18.658Z,100687.63
2022-12-18T22:32:30.575Z,100699.50
2022-12-18T22:36:37.753Z,100669.38
2022-12-18T22:40:39.491Z,100675.94
2022-12-18T22:44:41.187Z,100680.56
2022-12-18T22:48:43.366Z,100669.72
2022-12-18T22:52:46.414Z,100667.44
2022-12-18T22:56:48.377Z,100659.78
2022-12-18T23:00:49.957Z,100644.34
2022-12-18T23:04:51.612Z,100632.06
2022-12-18T23:08:56.209Z,100637.28
2022-12-18T23:12:57.865Z,100618.94
2022-12-18T23:16:59.475Z,100618.31
2022-12-18T23:21:05.418Z,100597.44
2022-12-18T23:25:10.360Z,100596.97
2022-12-18T23:29:11.857Z,100595.25
2022-12-18T23:33:13.328Z,100585.06
2022-12-18T23:37:29.971Z,100569.25
2022-12-18T23:41:37.899Z,100564.16
2022-12-18T23:45:39.395Z,100545.94
2022-12-18T23:49:40.889Z,100530.28
2022-12-18T23:53:42.965Z,100538.66
2022-12-18T23:57:45.819Z,100531.84
